Carrickfergus, United Kingdom
Current Conditions -  °F | °C
As of 5:20 PM on Sunday 23 Nov 2014 (Local Time) from EGAC Reporting Station
Few Clouds Few Clouds  
Wind Chill: 38°   Ceiling: Unl
Heat Index: 43°   Visibility: 6mi
Dew Point: 37°   Wind: 8mph
Humidity: 81%   Direction: 220°SW
Pressure: 30.09"   Gusts: NA
Location:  54.72°N, 5.79°W
Report Text: EGAC 231720Z 22007KT 9999 FEW035 06/03 Q1019
Loading
Personal Weather Stations






























Interactive Weather Map New forecast layout! Learn more

10-Day Weather Forecast

Advertisements
Track Severe Weather on mobile